sensor_id;sensor_type;location;lat;lon;timestamp;pressure;altitude;pressure_sealevel;temperature;humidity
38786;BME280;24535;45.508;12.252;2023-07-22T00:01:53;100978.13;;;28.07;57.49
38786;BME280;24535;45.508;12.252;2023-07-22T00:04:19;100990.22;;;28.04;57.48
38786;BME280;24535;45.508;12.252;2023-07-22T00:06:44;100985.00;;;28.03;57.24
38786;BME280;24535;45.508;12.252;2023-07-22T00:09:09;100987.72;;;28.09;57.09
38786;BME280;24535;45.508;12.252;2023-07-22T00:11:35;100996.44;;;28.18;57.04
38786;BME280;24535;45.508;12.252;2023-07-22T00:14:01;100995.38;;;28.19;57.25
38786;BME280;24535;45.508;12.252;2023-07-22T00:16:26;100995.19;;;28.14;56.81
38786;BME280;24535;45.508;12.252;2023-07-22T00:18:52;100992.94;;;28.04;56.97
38786;BME280;24535;45.508;12.252;2023-07-22T00:21:18;101003.78;;;27.98;57.38
38786;BME280;24535;45.508;12.252;2023-07-22T00:23:44;101004.84;;;27.97;57.00
38786;BME280;24535;45.508;12.252;2023-07-22T00:26:11;100997.34;;;27.92;57.83
38786;BME280;24535;45.508;12.252;2023-07-22T00:28:36;101004.81;;;27.90;58.19
38786;BME280;24535;45.508;12.252;2023-07-22T00:31:02;100992.97;;;27.84;58.33
38786;BME280;24535;45.508;12.252;2023-07-22T00:33:28;101009.84;;;27.80;58.25
38786;BME280;24535;45.508;12.252;2023-07-22T00:35:53;101005.69;;;27.77;58.26
38786;BME280;24535;45.508;12.252;2023-07-22T00:38:19;101015.03;;;27.75;58.61
38786;BME280;24535;45.508;12.252;2023-07-22T00:40:45;101018.34;;;27.70;59.00
38786;BME280;24535;45.508;12.252;2023-07-22T00:43:10;101026.47;;;27.70;58.37
38786;BME280;24535;45.508;12.252;2023-07-22T00:45:36;101024.59;;;27.71;58.44
38786;BME280;24535;45.508;12.252;2023-07-22T00:48:01;101030.44;;;27.68;58.90
38786;BME280;24535;45.508;12.252;2023-07-22T00:50:27;101022.94;;;27.63;58.93
38786;BME280;24535;45.508;12.252;2023-07-22T00:52:53;101026.91;;;27.60;58.95
38786;BME280;24535;45.508;12.252;2023-07-22T00:55:18;101029.81;;;27.59;58.57
38786;BME280;24535;45.508;12.252;2023-07-22T00:57:44;101031.66;;;27.58;58.58
38786;BME280;24535;45.508;12.252;2023-07-22T01:00:09;101021.69;;;27.59;58.73
38786;BME280;24535;45.508;12.252;2023-07-22T01:02:37;101017.75;;;27.55;58.65
38786;BME280;24535;45.508;12.252;2023-07-22T01:05:03;101015.03;;;27.55;58.98
38786;BME280;24535;45.508;12.252;2023-07-22T01:07:28;101016.28;;;27.52;59.03
38786;BME280;24535;45.508;12.252;2023-07-22T01:09:57;101012.09;;;27.50;59.03
38786;BME280;24535;45.508;12.252;2023-07-22T01:12:25;101013.16;;;27.49;58.92
38786;BME280;24535;45.508;12.252;2023-07-22T01:14:51;101018.78;;;27.47;59.66
38786;BME280;24535;45.508;12.252;2023-07-22T01:17:17;101013.56;;;27.52;58.82
38786;BME280;24535;45.508;12.252;2023-07-22T01:19:44;101012.09;;;27.56;58.73
38786;BME280;24535;45.508;12.252;2023-07-22T01:22:09;101013.16;;;27.55;58.49
38786;BME280;24535;45.508;12.252;2023-07-22T01:24:36;101007.09;;;27.53;58.55
38786;BME280;24535;45.508;12.252;2023-07-22T01:27:03;101007.94;;;27.54;58.45
38786;BME280;24535;45.508;12.252;2023-07-22T01:29:29;101002.31;;;27.49;58.44
38786;BME280;24535;45.508;12.252;2023-07-22T01:31:55;101002.97;;;27.51;58.42
38786;BME280;24535;45.508;12.252;2023-07-22T01:34:21;101007.31;;;27.52;58.33
38786;BME280;24535;45.508;12.252;2023-07-22T01:36:46;100995.44;;;27.53;58.67
38786;BME280;24535;45.508;12.252;2023-07-22T01:39:15;101002.97;;;27.51;58.30
38786;BME280;24535;45.508;12.252;2023-07-22T01:41:40;100995.44;;;27.46;57.88
38786;BME280;24535;45.508;12.252;2023-07-22T01:44:06;100995.22;;;27.41;58.30
38786;BME280;24535;45.508;12.252;2023-07-22T01:46:31;101010.63;;;27.34;58.54
38786;BME280;24535;45.508;12.252;2023-07-22T01:48:57;101003.94;;;27.30;58.89
38786;BME280;24535;45.508;12.252;2023-07-22T01:51:22;101008.94;;;27.26;58.46
38786;BME280;24535;45.508;12.252;2023-07-22T01:53:47;101003.97;;;27.23;58.88
38786;BME280;24535;45.508;12.252;2023-07-22T01:56:13;101005.41;;;27.19;59.25
38786;BME280;24535;45.508;12.252;2023-07-22T01:58:38;101006.03;;;27.15;59.63
38786;BME280;24535;45.508;12.252;2023-07-22T02:01:03;101006.44;;;27.18;59.15
38786;BME280;24535;45.508;12.252;2023-07-22T02:03:29;101003.53;;;27.26;59.08
38786;BME280;24535;45.508;12.252;2023-07-22T02:06:00;100996.28;;;27.27;59.02
38786;BME280;24535;45.508;12.252;2023-07-22T02:08:26;101007.94;;;27.27;58.94
38786;BME280;24535;45.508;12.252;2023-07-22T02:10:51;101012.91;;;27.30;58.91
38786;BME280;24535;45.508;12.252;2023-07-22T02:13:17;101008.94;;;27.26;58.42
38786;BME280;24535;45.508;12.252;2023-07-22T02:15:43;101016.84;;;27.21;58.26
38786;BME280;24535;45.508;12.252;2023-07-22T02:18:09;101017.47;;;27.17;58.03
38786;BME280;24535;45.508;12.252;2023-07-22T02:20:34;101018.09;;;27.12;58.42
38786;BME280;24535;45.508;12.252;2023-07-22T02:23:00;101023.88;;;27.09;57.78
38786;BME280;24535;45.508;12.252;2023-07-22T02:25:25;101014.31;;;27.06;58.62
38786;BME280;24535;45.508;12.252;2023-07-22T02:27:50;101020.94;;;27.04;58.43
38786;BME280;24535;45.508;12.252;2023-07-22T02:30:16;101026.56;;;27.02;58.05
38786;BME280;24535;45.508;12.252;2023-07-22T02:32:42;101022.41;;;27.00;58.25
38786;BME280;24535;45.508;12.252;2023-07-22T02:35:08;101035.28;;;26.98;58.55
38786;BME280;24535;45.508;12.252;2023-07-22T02:37:37;101031.94;;;26.96;58.36
38786;BME280;24535;45.508;12.252;2023-07-22T02:40:03;101040.47;;;26.93;58.10
38786;BME280;24535;45.508;12.252;2023-07-22T02:42:38;101035.44;;;26.90;58.63
38786;BME280;24535;45.508;12.252;2023-07-22T02:45:03;101044.59;;;26.88;58.47
38786;BME280;24535;45.508;12.252;2023-07-22T02:47:29;101047.72;;;26.85;58.38
38786;BME280;24535;45.508;12.252;2023-07-22T02:49:55;101052.28;;;26.85;57.81
38786;BME280;24535;45.508;12.252;2023-07-22T02:52:20;101056.03;;;26.84;58.04
38786;BME280;24535;45.508;12.252;2023-07-22T02:55:03;101060.19;;;26.80;57.77
38786;BME280;24535;45.508;12.252;2023-07-22T02:57:29;101053.50;;;26.76;58.49
38786;BME280;24535;45.508;12.252;2023-07-22T02:59:54;101059.13;;;26.74;58.61
38786;BME280;24535;45.508;12.252;2023-07-22T03:02:19;101070.94;;;26.73;58.62
38786;BME280;24535;45.508;12.252;2023-07-22T03:04:45;101070.13;;;26.73;58.72
38786;BME280;24535;45.508;12.252;2023-07-22T03:07:10;101074.69;;;26.72;59.06
38786;BME280;24535;45.508;12.252;2023-07-22T03:09:35;101078.44;;;26.71;59.11
38786;BME280;24535;45.508;12.252;2023-07-22T03:12:01;101083.44;;;26.74;58.92
38786;BME280;24535;45.508;12.252;2023-07-22T03:14:26;101090.31;;;26.77;59.03
38786;BME280;24535;45.508;12.252;2023-07-22T03:16:52;101089.28;;;26.78;58.56
38786;BME280;24535;45.508;12.252;2023-07-22T03:19:17;101093.84;;;26.77;58.51
38786;BME280;24535;45.508;12.252;2023-07-22T03:21:42;101094.88;;;26.76;58.59
38786;BME280;24535;45.508;12.252;2023-07-22T03:24:08;101093.41;;;26.74;58.70
38786;BME280;24535;45.508;12.252;2023-07-22T03:26:34;101105.09;;;26.81;59.17
38786;BME280;24535;45.508;12.252;2023-07-22T03:28:59;101098.06;;;26.86;58.63
38786;BME280;24535;45.508;12.252;2023-07-22T03:31:25;101098.25;;;26.85;58.12
38786;BME280;24535;45.508;12.252;2023-07-22T03:33:50;101096.59;;;26.84;58.26
38786;BME280;24535;45.508;12.252;2023-07-22T03:36:15;101102.22;;;26.82;58.46
38786;BME280;24535;45.508;12.252;2023-07-22T03:38:41;101099.28;;;26.84;58.36
38786;BME280;24535;45.508;12.252;2023-07-22T03:41:06;101105.53;;;26.84;58.23
38786;BME280;24535;45.508;12.252;2023-07-22T03:43:31;101105.53;;;26.84;58.30
38786;BME280;24535;45.508;12.252;2023-07-22T03:45:57;101105.53;;;26.84;58.31
38786;BME280;24535;45.508;12.252;2023-07-22T03:48:22;101104.50;;;26.85;58.04
38786;BME280;24535;45.508;12.252;2023-07-22T03:50:48;101119.28;;;26.90;58.05
38786;BME280;24535;45.508;12.252;2023-07-22T03:53:13;101118.88;;;26.93;58.10
38786;BME280;24535;45.508;12.252;2023-07-22T03:55:39;101121.19;;;26.96;58.15
38786;BME280;24535;45.508;12.252;2023-07-22T03:58:04;101123.69;;;26.97;58.03
38786;BME280;24535;45.508;12.252;2023-07-22T04:00:30;101122.84;;;26.97;57.90
38786;BME280;24535;45.508;12.252;2023-07-22T04:02:56;101135.34;;;26.98;58.26
38786;BME280;24535;45.508;12.252;2023-07-22T04:05:21;101134.31;;;26.99;58.20
38786;BME280;24535;45.508;12.252;2023-07-22T04:07:47;101137.66;;;27.01;58.26
38786;BME280;24535;45.508;12.252;2023-07-22T04:10:12;101140.16;;;27.02;57.79
38786;BME280;24535;45.508;12.252;2023-07-22T04:12:37;101127.03;;;26.99;57.58
38786;BME280;24535;45.508;12.252;2023-07-22T04:15:03;101133.91;;;27.02;58.01
38786;BME280;24535;45.508;12.252;2023-07-22T04:17:28;101139.97;;;27.04;57.85
38786;BME280;24535;45.508;12.252;2023-07-22T04:19:54;101149.72;;;27.05;57.84
38786;BME280;24535;45.508;12.252;2023-07-22T04:22:22;101150.78;;;27.04;57.33
38786;BME280;24535;45.508;12.252;2023-07-22T04:24:48;101151.16;;;27.01;57.58
38786;BME280;24535;45.508;12.252;2023-07-22T04:27:14;101149.56;;;27.06;57.93
38786;BME280;24535;45.508;12.252;2023-07-22T04:29:40;101149.34;;;27.08;58.10
38786;BME280;24535;45.508;12.252;2023-07-22T04:32:06;101145.44;;;27.10;58.10
38786;BME280;24535;45.508;12.252;2023-07-22T04:34:33;101144.56;;;27.10;57.50
38786;BME280;24535;45.508;12.252;2023-07-22T04:36:59;101145.22;;;27.12;57.79
38786;BME280;24535;45.508;12.252;2023-07-22T04:39:24;101142.31;;;27.14;57.47
38786;BME280;24535;45.508;12.252;2023-07-22T04:41:50;101148.53;;;27.14;57.47
38786;BME280;24535;45.508;12.252;2023-07-22T04:44:16;101141.69;;;27.11;57.79
38786;BME280;24535;45.508;12.252;2023-07-22T04:46:42;101135.44;;;27.11;58.21
38786;BME280;24535;45.508;12.252;2023-07-22T04:49:07;101131.69;;;27.12;58.24
38786;BME280;24535;45.508;12.252;2023-07-22T04:51:33;101145.84;;;27.14;58.23
38786;BME280;24535;45.508;12.252;2023-07-22T04:53:59;101147.31;;;27.17;57.71
38786;BME280;24535;45.508;12.252;2023-07-22T04:56:24;101155.06;;;27.26;58.34
38786;BME280;24535;45.508;12.252;2023-07-22T04:58:49;101162.81;;;27.36;57.82
38786;BME280;24535;45.508;12.252;2023-07-22T05:01:15;101163.03;;;27.41;57.91
38786;BME280;24535;45.508;12.252;2023-07-22T05:03:40;101169.09;;;27.50;57.57
38786;BME280;24535;45.508;12.252;2023-07-22T05:06:06;101164.94;;;27.54;57.51
38786;BME280;24535;45.508;12.252;2023-07-22T05:08:31;101167.25;;;27.57;57.79
38786;BME280;24535;45.508;12.252;2023-07-22T05:10:57;101171.22;;;27.61;57.94
38786;BME280;24535;45.508;12.252;2023-07-22T05:13:22;101173.72;;;27.69;57.65
38786;BME280;24535;45.508;12.252;2023-07-22T05:15:47;101176.69;;;27.74;57.48
38786;BME280;24535;45.508;12.252;2023-07-22T05:18:13;101174.63;;;27.76;57.22
38786;BME280;24535;45.508;12.252;2023-07-22T05:20:38;101175.44;;;27.77;57.37
38786;BME280;24535;45.508;12.252;2023-07-22T05:23:04;101177.09;;;27.78;57.29
38786;BME280;24535;45.508;12.252;2023-07-22T05:25:29;101177.53;;;27.81;56.93
38786;BME280;24535;45.508;12.252;2023-07-22T05:27:55;101187.53;;;27.81;57.00
38786;BME280;24535;45.508;12.252;2023-07-22T05:30:20;101191.06;;;27.81;57.16
38786;BME280;24535;45.508;12.252;2023-07-22T05:32:46;101206.28;;;27.82;57.18
38786;BME280;24535;45.508;12.252;2023-07-22T05:35:11;101209.63;;;27.84;56.86
38786;BME280;24535;45.508;12.252;2023-07-22T05:37:36;101212.53;;;27.83;56.94
38786;BME280;24535;45.508;12.252;2023-07-22T05:40:02;101220.88;;;27.81;56.63
38786;BME280;24535;45.508;12.252;2023-07-22T05:42:27;101212.97;;;27.80;57.27
38786;BME280;24535;45.508;12.252;2023-07-22T05:44:57;101219.41;;;27.85;57.29
38786;BME280;24535;45.508;12.252;2023-07-22T05:47:22;101219.00;;;27.95;56.83
38786;BME280;24535;45.508;12.252;2023-07-22T05:49:48;101211.75;;;28.02;56.76
38786;BME280;24535;45.508;12.252;2023-07-22T05:52:13;101209.03;;;28.09;56.43
38786;BME280;24535;45.508;12.252;2023-07-22T05:54:39;101216.13;;;28.10;55.80
38786;BME280;24535;45.508;12.252;2023-07-22T05:57:05;101219.66;;;28.10;56.02
38786;BME280;24535;45.508;12.252;2023-07-22T05:59:30;101228.66;;;28.18;55.79
38786;BME280;24535;45.508;12.252;2023-07-22T06:01:56;101227.63;;;28.25;55.53
38786;BME280;24535;45.508;12.252;2023-07-22T06:04:21;101228.88;;;28.29;54.69
38786;BME280;24535;45.508;12.252;2023-07-22T06:06:47;101228.47;;;28.32;55.46
38786;BME280;24535;45.508;12.252;2023-07-22T06:09:13;101229.75;;;28.37;55.06
38786;BME280;24535;45.508;12.252;2023-07-22T06:11:38;101228.06;;;28.42;54.43
38786;BME280;24535;45.508;12.252;2023-07-22T06:14:04;101227.44;;;28.47;54.76
38786;BME280;24535;45.508;12.252;2023-07-22T06:16:29;101229.09;;;28.54;54.82
38786;BME280;24535;45.508;12.252;2023-07-22T06:18:55;101229.31;;;28.59;54.63
38786;BME280;24535;45.508;12.252;2023-07-22T06:21:20;101235.34;;;28.68;54.18
38786;BME280;24535;45.508;12.252;2023-07-22T06:23:45;101236.19;;;28.75;54.13
38786;BME280;24535;45.508;12.252;2023-07-22T06:26:11;101229.28;;;28.79;53.31
38786;BME280;24535;45.508;12.252;2023-07-22T06:28:36;101228.28;;;28.80;53.37
38786;BME280;24535;45.508;12.252;2023-07-22T06:31:02;101233.25;;;28.83;53.68
38786;BME280;24535;45.508;12.252;2023-07-22T06:33:27;101237.66;;;28.85;53.51
38786;BME280;24535;45.508;12.252;2023-07-22T06:35:52;101231.38;;;28.84;52.84
38786;BME280;24535;45.508;12.252;2023-07-22T06:38:18;101230.53;;;28.83;53.08
38786;BME280;24535;45.508;12.252;2023-07-22T06:40:43;101243.28;;;28.83;52.95
38786;BME280;24535;45.508;12.252;2023-07-22T06:43:09;101244.72;;;28.79;52.99
38786;BME280;24535;45.508;12.252;2023-07-22T06:45:34;101248.09;;;28.74;53.28
38786;BME280;24535;45.508;12.252;2023-07-22T06:47:59;101250.78;;;28.74;53.39
38786;BME280;24535;45.508;12.252;2023-07-22T06:50:25;101246.59;;;28.72;52.56
38786;BME280;24535;45.508;12.252;2023-07-22T06:52:50;101257.69;;;28.70;52.27
38786;BME280;24535;45.508;12.252;2023-07-22T06:55:16;101259.34;;;28.71;52.73
38786;BME280;24535;45.508;12.252;2023-07-22T06:57:41;101252.25;;;28.70;52.43
38786;BME280;24535;45.508;12.252;2023-07-22T07:00:07;101248.72;;;28.70;53.09
38786;BME280;24535;45.508;12.252;2023-07-22T07:02:35;101253.09;;;28.77;53.49
38786;BME280;24535;45.508;12.252;2023-07-22T07:05:00;101255.78;;;28.84;53.41
38786;BME280;24535;45.508;12.252;2023-07-22T07:07:25;101256.84;;;28.90;53.14
38786;BME280;24535;45.508;12.252;2023-07-22T07:09:51;101267.28;;;28.99;52.76
38786;BME280;24535;45.508;12.252;2023-07-22T07:12:16;101263.91;;;29.04;52.85
38786;BME280;24535;45.508;12.252;2023-07-22T07:14:41;101268.94;;;29.07;52.25
38786;BME280;24535;45.508;12.252;2023-07-22T07:17:07;101279.97;;;29.12;51.54
38786;BME280;24535;45.508;12.252;2023-07-22T07:19:32;101278.97;;;29.13;51.77
38786;BME280;24535;45.508;12.252;2023-07-22T07:21:58;101281.22;;;29.16;51.98
38786;BME280;24535;45.508;12.252;2023-07-22T07:24:24;101279.75;;;29.20;52.30
38786;BME280;24535;45.508;12.252;2023-07-22T07:26:49;101284.75;;;29.23;51.96
38786;BME280;24535;45.508;12.252;2023-07-22T07:29:15;101274.31;;;29.27;52.14
38786;BME280;24535;45.508;12.252;2023-07-22T07:31:40;101281.59;;;29.33;52.61
38786;BME280;24535;45.508;12.252;2023-07-22T07:34:05;101270.13;;;29.38;52.11
38786;BME280;24535;45.508;12.252;2023-07-22T07:36:31;101273.44;;;29.40;51.71
38786;BME280;24535;45.508;12.252;2023-07-22T07:38:57;101269.88;;;29.46;51.64
38786;BME280;24535;45.508;12.252;2023-07-22T07:41:22;101267.56;;;29.49;50.95
38786;BME280;24535;45.508;12.252;2023-07-22T07:43:48;101262.31;;;29.54;51.61
38786;BME280;24535;45.508;12.252;2023-07-22T07:46:18;101259.81;;;29.60;51.17
38786;BME280;24535;45.508;12.252;2023-07-22T07:48:44;101253.75;;;29.64;50.60
38786;BME280;24535;45.508;12.252;2023-07-22T07:51:10;101253.53;;;29.66;50.01
38786;BME280;24535;45.508;12.252;2023-07-22T07:53:35;101262.69;;;29.71;51.21
38786;BME280;24535;45.508;12.252;2023-07-22T07:56:00;101263.06;;;29.81;50.83
38786;BME280;24535;45.508;12.252;2023-07-22T07:58:26;101260.28;;;29.95;49.29
38786;BME280;24535;45.508;12.252;2023-07-22T08:00:51;101263.06;;;30.13;48.73
38786;BME280;24535;45.508;12.252;2023-07-22T08:03:17;101256.38;;;30.22;48.31
38786;BME280;24535;45.508;12.252;2023-07-22T08:05:42;101259.16;;;30.41;49.40
38786;BME280;24535;45.508;12.252;2023-07-22T08:08:07;101268.53;;;30.70;48.67
38786;BME280;24535;45.508;12.252;2023-07-22T08:10:32;101265.31;;;31.05;47.44
38786;BME280;24535;45.508;12.252;2023-07-22T08:12:58;101271.03;;;31.40;47.79
38786;BME280;24535;45.508;12.252;2023-07-22T08:15:24;101265.53;;;31.76;46.76
38786;BME280;24535;45.508;12.252;2023-07-22T08:17:49;101273.75;;;32.07;45.96
38786;BME280;24535;45.508;12.252;2023-07-22T08:20:15;101275.56;;;32.24;45.88
38786;BME280;24535;45.508;12.252;2023-07-22T08:22:40;101270.13;;;32.36;44.76
38786;BME280;24535;45.508;12.252;2023-07-22T08:25:05;101269.72;;;32.51;44.95
38786;BME280;24535;45.508;12.252;2023-07-22T08:27:31;101271.50;;;32.69;44.46
38786;BME280;24535;45.508;12.252;2023-07-22T08:29:56;101274.50;;;32.91;44.54
38786;BME280;24535;45.508;12.252;2023-07-22T08:32:21;101275.00;;;33.11;44.69
38786;BME280;24535;45.508;12.252;2023-07-22T08:34:47;101278.16;;;33.32;43.80
38786;BME280;24535;45.508;12.252;2023-07-22T08:37:12;101270.16;;;33.42;43.31
38786;BME280;24535;45.508;12.252;2023-07-22T08:39:38;101281.09;;;33.42;43.95
38786;BME280;24535;45.508;12.252;2023-07-22T08:42:03;101276.50;;;33.31;42.45
38786;BME280;24535;45.508;12.252;2023-07-22T08:44:31;101278.44;;;33.18;43.34
38786;BME280;24535;45.508;12.252;2023-07-22T08:46:59;101268.69;;;33.11;43.74
38786;BME280;24535;45.508;12.252;2023-07-22T08:49:25;101286.84;;;33.05;43.20
38786;BME280;24535;45.508;12.252;2023-07-22T08:51:52;101280.47;;;33.00;43.33
38786;BME280;24535;45.508;12.252;2023-07-22T08:54:18;101281.41;;;32.93;43.40
38786;BME280;24535;45.508;12.252;2023-07-22T08:56:45;101284.69;;;32.84;43.86
38786;BME280;24535;45.508;12.252;2023-07-22T08:59:11;101286.00;;;32.81;43.62
38786;BME280;24535;45.508;12.252;2023-07-22T09:01:37;101290.88;;;32.79;43.46
38786;BME280;24535;45.508;12.252;2023-07-22T09:04:04;101287.78;;;32.76;43.91
38786;BME280;24535;45.508;12.252;2023-07-22T09:06:29;101283.28;;;32.69;43.59
38786;BME280;24535;45.508;12.252;2023-07-22T09:08:55;101284.69;;;32.60;43.77
38786;BME280;24535;45.508;12.252;2023-07-22T09:11:20;101280.63;;;32.51;44.08
38786;BME280;24535;45.508;12.252;2023-07-22T09:13:46;101283.97;;;32.41;43.95
38786;BME280;24535;45.508;12.252;2023-07-22T09:16:13;101270.84;;;32.32;44.76
38786;BME280;24535;45.508;12.252;2023-07-22T09:18:38;101275.34;;;32.26;44.87
38786;BME280;24535;45.508;12.252;2023-07-22T09:21:04;101276.97;;;32.15;44.25
38786;BME280;24535;45.508;12.252;2023-07-22T09:23:35;101286.09;;;32.09;44.01
38786;BME280;24535;45.508;12.252;2023-07-22T09:26:10;101282.63;;;32.02;44.27
38786;BME280;24535;45.508;12.252;2023-07-22T09:31:13;101288.72;;;31.86;44.34
38786;BME280;24535;45.508;12.252;2023-07-22T09:33:38;101275.50;;;31.83;43.99
38786;BME280;24535;45.508;12.252;2023-07-22T09:36:04;101278.69;;;31.80;44.07
38786;BME280;24535;45.508;12.252;2023-07-22T09:38:29;101283.31;;;31.79;44.20
38786;BME280;24535;45.508;12.252;2023-07-22T09:40:55;101280.59;;;31.79;44.42
38786;BME280;24535;45.508;12.252;2023-07-22T09:43:21;101279.50;;;31.80;44.56
38786;BME280;24535;45.508;12.252;2023-07-22T09:45:47;101279.91;;;31.84;44.23
38786;BME280;24535;45.508;12.252;2023-07-22T09:48:13;101285.53;;;31.89;44.56
38786;BME280;24535;45.508;12.252;2023-07-22T09:50:39;101274.75;;;31.94;44.29
38786;BME280;24535;45.508;12.252;2023-07-22T09:53:06;101275.13;;;31.97;44.30
38786;BME280;24535;45.508;12.252;2023-07-22T09:55:31;101273.81;;;32.00;44.38
38786;BME280;24535;45.508;12.252;2023-07-22T09:58:01;101277.16;;;32.02;44.12
38786;BME280;24535;45.508;12.252;2023-07-22T10:00:33;101270.63;;;32.03;44.07
38786;BME280;24535;45.508;12.252;2023-07-22T10:02:59;101271.84;;;32.07;43.59
38786;BME280;24535;45.508;12.252;2023-07-22T10:05:25;101273.75;;;32.07;43.63
38786;BME280;24535;45.508;12.252;2023-07-22T10:07:51;101255.72;;;32.06;42.58
38786;BME280;24535;45.508;12.252;2023-07-22T10:10:21;101265.56;;;32.07;42.88
38786;BME280;24535;45.508;12.252;2023-07-22T10:12:47;101259.53;;;32.05;42.53
38786;BME280;24535;45.508;12.252;2023-07-22T10:15:13;101259.53;;;32.05;43.02
38786;BME280;24535;45.508;12.252;2023-07-22T10:17:40;101258.66;;;32.04;43.33
38786;BME280;24535;45.508;12.252;2023-07-22T10:20:06;101253.22;;;32.04;42.55
38786;BME280;24535;45.508;12.252;2023-07-22T10:22:35;101248.63;;;32.05;42.59
38786;BME280;24535;45.508;12.252;2023-07-22T10:25:05;101239.00;;;32.02;42.71
38786;BME280;24535;45.508;12.252;2023-07-22T10:27:31;101227.25;;;32.02;42.94
38786;BME280;24535;45.508;12.252;2023-07-22T10:29:57;101227.47;;;32.00;43.05
38786;BME280;24535;45.508;12.252;2023-07-22T10:32:22;101218.25;;;32.01;42.77
38786;BME280;24535;45.508;12.252;2023-07-22T10:34:48;101216.38;;;32.02;43.00
38786;BME280;24535;45.508;12.252;2023-07-22T10:37:13;101229.16;;;32.01;43.26
38786;BME280;24535;45.508;12.252;2023-07-22T10:39:38;101231.66;;;32.03;43.58
38786;BME280;24535;45.508;12.252;2023-07-22T10:42:04;101234.38;;;32.03;43.15
38786;BME280;24535;45.508;12.252;2023-07-22T10:44:33;101232.47;;;32.03;43.34
38786;BME280;24535;45.508;12.252;2023-07-22T10:46:59;101236.28;;;32.02;43.07
38786;BME280;24535;45.508;12.252;2023-07-22T10:49:24;101231.88;;;32.01;42.52
38786;BME280;24535;45.508;12.252;2023-07-22T10:51:53;101238.16;;;32.02;42.97
38786;BME280;24535;45.508;12.252;2023-07-22T10:54:31;101234.75;;;32.06;42.82
38786;BME280;24535;45.508;12.252;2023-07-22T10:57:02;101226.09;;;32.09;42.68
38786;BME280;24535;45.508;12.252;2023-07-22T10:59:27;101230.25;;;32.12;42.89
38786;BME280;24535;45.508;12.252;2023-07-22T11:01:53;101231.06;;;32.12;43.25
38786;BME280;24535;45.508;12.252;2023-07-22T11:04:23;101243.66;;;32.13;43.77
38786;BME280;24535;45.508;12.252;2023-07-22T11:06:56;101234.66;;;32.13;43.97
38786;BME280;24535;45.508;12.252;2023-07-22T11:11:50;101238.41;;;32.12;44.21
38786;BME280;24535;45.508;12.252;2023-07-22T11:14:25;101244.69;;;32.12;44.66
38786;BME280;24535;45.508;12.252;2023-07-22T11:16:50;101243.66;;;32.13;44.16
38786;BME280;24535;45.508;12.252;2023-07-22T11:19:18;101251.59;;;32.15;44.30
38786;BME280;24535;45.508;12.252;2023-07-22T11:21:43;101255.75;;;32.17;44.76
38786;BME280;24535;45.508;12.252;2023-07-22T11:24:09;101253.03;;;32.17;44.28
38786;BME280;24535;45.508;12.252;2023-07-22T11:26:35;101254.44;;;32.20;43.74
38786;BME280;24535;45.508;12.252;2023-07-22T11:29:01;101250.44;;;32.22;43.94
38786;BME280;24535;45.508;12.252;2023-07-22T11:31:30;101245.81;;;32.23;42.76
38786;BME280;24535;45.508;12.252;2023-07-22T11:33:55;101241.19;;;32.23;43.01
38786;BME280;24535;45.508;12.252;2023-07-22T11:36:21;101212.50;;;32.21;43.30
38786;BME280;24535;45.508;12.252;2023-07-22T11:38:47;101200.16;;;32.18;42.82
38786;BME280;24535;45.508;12.252;2023-07-22T11:41:12;101217.59;;;32.17;42.57
38786;BME280;24535;45.508;12.252;2023-07-22T11:43:38;101227.88;;;32.15;43.38
38786;BME280;24535;45.508;12.252;2023-07-22T11:46:06;101209.75;;;32.09;43.88
38786;BME280;24535;45.508;12.252;2023-07-22T11:48:31;101194.66;;;32.07;44.04
38786;BME280;24535;45.508;12.252;2023-07-22T11:51:00;101202.94;;;32.00;44.14
38786;BME280;24535;45.508;12.252;2023-07-22T11:53:28;101211.00;;;31.95;44.49
38786;BME280;24535;45.508;12.252;2023-07-22T11:55:57;101242.50;;;31.91;44.66
38786;BME280;24535;45.508;12.252;2023-07-22T11:58:26;101288.72;;;31.86;44.94
38786;BME280;24535;45.508;12.252;2023-07-22T12:03:32;101375.44;;;31.70;45.18
38786;BME280;24535;45.508;12.252;2023-07-22T12:06:00;101398.47;;;31.56;46.16
38786;BME280;24535;45.508;12.252;2023-07-22T12:08:26;101402.44;;;31.35;47.97
38786;BME280;24535;45.508;12.252;2023-07-22T12:11:00;101376.63;;;31.13;48.01
38786;BME280;24535;45.508;12.252;2023-07-22T12:13:26;101327.81;;;30.93;51.71
38786;BME280;24535;45.508;12.252;2023-07-22T12:16:04;101281.09;;;30.71;50.17
38786;BME280;24535;45.508;12.252;2023-07-22T12:18:42;101272.47;;;30.49;51.15
38786;BME280;24535;45.508;12.252;2023-07-22T12:21:07;101260.91;;;30.28;52.41
38786;BME280;24535;45.508;12.252;2023-07-22T12:23:34;101261.66;;;30.11;52.25
38786;BME280;24535;45.508;12.252;2023-07-22T12:25:59;101258.78;;;29.99;51.70
38786;BME280;24535;45.508;12.252;2023-07-22T12:28:25;101252.59;;;29.85;52.52
38786;BME280;24535;45.508;12.252;2023-07-22T12:30:50;101239.06;;;29.72;52.71
38786;BME280;24535;45.508;12.252;2023-07-22T12:33:15;101243.09;;;29.63;52.93
38786;BME280;24535;45.508;12.252;2023-07-22T12:35:41;101208.22;;;29.53;53.05
38786;BME280;24535;45.508;12.252;2023-07-22T12:38:06;101160.63;;;29.44;53.28
38786;BME280;24535;45.508;12.252;2023-07-22T12:40:31;101127.06;;;29.38;54.01
38786;BME280;24535;45.508;12.252;2023-07-22T12:42:56;101129.56;;;29.33;53.16